Time;durP1;ratioP1;P1;durP2;ratioP2;P2;SDS_P1;SDS_P2;PMS_P1;PMS_P2;Temp;Humidity;BMP_temperature;BMP_pressure;BME280_temperature;BME280_humidity;BME280_pressure;Samples;Min_cycle;Max_cycle;Signal;HPM_P1;HPM_P2
2021/08/02 00:00:09;;;;;;;;;0.75;0.75;;;;;20.20;49.14;101119.03;4978924;28;45273;-91
2021/08/02 00:02:40;;;;;;;;;1.00;1.00;;;;;20.18;49.25;101115.63;4978904;28;45536;-91
2021/08/02 00:05:07;;;;;;;;;0.00;0.00;;;;;20.16;49.00;101121.03;4975807;28;45506;-90
2021/08/02 00:07:36;;;;;;;;;1.00;1.00;;;;;20.15;49.49;101116.69;4979078;28;47698;-91
2021/08/02 00:10:13;;;;;;;;;0.50;0.50;;;;;20.11;49.60;101106.47;4992316;28;45369;-91
2021/08/02 00:12:49;;;;;;;;;1.00;1.00;;;;;20.12;49.66;101113.44;4959798;28;45322;-90
2021/08/02 00:15:17;;;;;;;;;1.00;1.00;;;;;20.06;49.65;101111.22;4959606;28;45626;-91
2021/08/02 00:17:44;;;;;;;;;1.00;1.00;;;;;20.05;49.32;101106.91;4959701;28;47070;-89
2021/08/02 00:20:14;;;;;;;;;2.25;1.00;;;;;20.02;49.71;101110.59;4975665;28;45534;-91
2021/08/02 00:22:40;;;;;;;;;1.00;1.00;;;;;20.01;49.80;101106.28;4959533;28;45336;-91
2021/08/02 00:25:07;;;;;;;;;2.25;1.00;;;;;20.00;49.95;101110.69;4971922;28;45503;-91
2021/08/02 00:27:33;;;;;;;;;1.00;1.00;;;;;19.97;49.92;101110.06;4971660;28;47374;-91
2021/08/02 00:30:00;;;;;;;;;1.00;1.00;;;;;19.94;49.67;101110.28;4962713;28;45562;-91
2021/08/02 00:32:27;;;;;;;;;1.25;1.25;;;;;19.94;49.98;101112.91;4962648;28;45419;-90
2021/08/02 00:34:53;;;;;;;;;3.00;1.00;;;;;19.87;49.94;101105.41;4961981;28;45302;-88
2021/08/02 00:37:26;;;;;;;;;1.50;1.00;;;;;19.85;50.65;101104.66;4962553;28;46965;-91
2021/08/02 00:40:00;;;;;;;;;1.00;1.00;;;;;19.88;50.35;101115.03;4962590;28;45317;-91
2021/08/02 00:42:58;;;;;;;;;1.00;1.00;;;;;19.84;50.22;101113.56;4978949;28;45316;-91
2021/08/02 00:45:30;;;;;;;;;2.33;2.00;;;;;19.80;50.09;101104.16;4962856;28;44863;-91
2021/08/02 00:48:08;;;;;;;;;1.00;1.00;;;;;19.79;50.43;101105.09;4991507;28;47290;-90
2021/08/02 00:50:49;;;;;;;;;1.00;1.00;;;;;19.83;50.72;101118.94;4975472;28;45421;-91
2021/08/02 00:53:22;;;;;;;;;1.00;1.00;;;;;19.81;50.80;101111.09;4978529;28;45454;-91
2021/08/02 00:55:50;;;;;;;;;1.00;1.00;;;;;19.79;50.54;101114.81;4980186;28;45511;-90
2021/08/02 00:58:19;;;;;;;;;1.00;1.00;;;;;19.79;51.30;101117.44;4974405;28;47265;-90
2021/08/02 01:00:46;;;;;;;;;1.00;1.00;;;;;19.75;51.10;101122.97;4978349;28;46033;-91
2021/08/02 01:03:16;;;;;;;;;1.00;1.00;;;;;19.72;51.19;101117.03;4978757;28;45412;-90
2021/08/02 01:05:44;;;;;;;;;1.00;1.00;;;;;19.69;51.01;101110.19;4978609;28;45573;-90
2021/08/02 01:08:13;;;;;;;;;2.00;2.00;;;;;19.69;50.99;101119.88;4962323;28;46947;-91
2021/08/02 01:10:45;;;;;;;;;1.75;1.00;;;;;19.67;51.35;101113.88;4979902;28;45447;-90
2021/08/02 01:13:12;;;;;;;;;1.00;1.00;;;;;19.63;51.15;101105.31;4978549;28;45355;-91
2021/08/02 01:15:40;;;;;;;;;1.75;1.75;;;;;19.66;50.95;101109.56;4978522;28;44964;-90
2021/08/02 01:18:06;;;;;;;;;1.67;1.00;;;;;19.58;51.47;101099.50;4982794;28;45438;-90
2021/08/02 01:20:34;;;;;;;;;2.00;2.00;;;;;19.54;51.54;101101.53;4978216;28;45340;-91
2021/08/02 01:23:04;;;;;;;;;2.00;2.00;;;;;19.54;51.60;101103.31;4978410;28;45348;-90
2021/08/02 01:25:38;;;;;;;;;2.00;2.00;;;;;19.51;51.36;101107.00;4978418;28;45438;-90
2021/08/02 01:28:13;;;;;;;;;1.00;1.00;;;;;19.47;51.85;101110.78;4978307;28;47236;-91
2021/08/02 01:30:42;;;;;;;;;4.00;1.00;;;;;19.39;51.41;101110.47;5007029;28;45353;-91
2021/08/02 01:33:08;;;;;;;;;2.00;2.00;;;;;19.32;51.34;101112.69;4978392;28;45265;-89
2021/08/02 01:35:39;;;;;;;;;1.00;1.00;;;;;19.34;51.50;101121.31;4966066;28;45483;-90
2021/08/02 01:38:05;;;;;;;;;2.00;2.00;;;;;19.24;51.46;101107.91;4961493;28;47145;-91
2021/08/02 01:40:31;;;;;;;;;1.50;1.50;;;;;19.22;52.22;101115.91;4961517;28;45436;-91
2021/08/02 01:42:58;;;;;;;;;3.00;1.00;;;;;19.18;52.09;101124.16;4961705;28;45174;-91
2021/08/02 01:45:24;;;;;;;;;1.25;1.00;;;;;19.12;51.73;101120.13;4960636;28;45450;-91
2021/08/02 01:48:02;;;;;;;;;2.00;2.00;;;;;19.08;52.33;101110.75;4961385;28;47555;-91
2021/08/02 01:50:38;;;;;;;;;2.00;2.00;;;;;18.99;51.91;101111.31;4960990;28;45377;-90
2021/08/02 01:53:25;;;;;;;;;2.00;2.00;;;;;18.98;52.05;101120.16;4961484;28;45499;-90
2021/08/02 01:55:59;;;;;;;;;1.00;1.00;;;;;18.93;52.51;101118.66;4961559;28;44913;-90
2021/08/02 01:58:30;;;;;;;;;3.00;2.00;;;;;18.88;52.70;101123.41;4993159;28;47400;-91
2021/08/02 02:00:57;;;;;;;;;1.00;1.00;;;;;18.81;52.69;101115.06;4960625;28;45666;-91
2021/08/02 02:03:26;;;;;;;;;2.33;2.33;;;;;18.77;52.45;101112.69;4961601;28;45443;-90
2021/08/02 02:05:59;;;;;;;;;2.00;2.00;;;;;18.78;52.66;101122.28;4961816;28;45313;-91
2021/08/02 02:08:46;;;;;;;;;2.00;1.00;;;;;18.70;52.89;101120.16;4961251;28;47178;-90
2021/08/02 02:11:13;;;;;;;;;4.00;2.50;;;;;18.68;52.94;101120.28;4993348;28;45236;-91
2021/08/02 02:13:43;;;;;;;;;3.50;2.00;;;;;18.61;52.72;101121.59;4976298;28;45441;-90
2021/08/02 02:16:12;;;;;;;;;2.00;2.00;;;;;18.60;53.04;101130.44;4977646;28;45410;-91
2021/08/02 02:18:46;;;;;;;;;3.00;2.00;;;;;18.56;53.01;101134.22;4977313;28;47258;-91
2021/08/02 02:21:12;;;;;;;;;2.33;2.33;;;;;18.50;53.67;101124.94;4977231;28;45559;-90
2021/08/02 02:23:38;;;;;;;;;0.67;0.67;;;;;18.50;53.69;101130.19;4974172;28;45497;-91
2021/08/02 02:26:07;;;;;;;;;3.75;2.00;;;;;18.45;53.57;101127.00;4977348;28;45643;-91
2021/08/02 02:28:34;;;;;;;;;2.25;2.25;;;;;18.38;53.49;101112.53;4977053;28;47416;-91
2021/08/02 02:31:01;;;;;;;;;2.00;2.00;;;;;18.37;53.89;101116.13;4978580;28;45477;-90
2021/08/02 02:33:30;;;;;;;;;2.50;2.00;;;;;18.35;53.67;101118.84;5003383;28;45359;-91
2021/08/02 02:35:56;;;;;;;;;2.75;2.25;;;;;18.32;54.01;101113.75;4960885;28;45479;-91
2021/08/02 02:38:24;;;;;;;;;2.50;2.25;;;;;18.27;53.58;101116.69;4976940;28;47306;-91
2021/08/02 02:40:51;;;;;;;;;2.75;2.50;;;;;18.23;54.02;101109.09;4976850;28;44872;-90
2021/08/02 02:43:18;;;;;;;;;2.00;2.00;;;;;18.24;53.76;101113.41;4960432;28;45490;-90
2021/08/02 02:45:46;;;;;;;;;2.75;2.00;;;;;18.19;54.09;101116.31;4977212;28;45648;-91
2021/08/02 02:48:15;;;;;;;;;2.75;2.00;;;;;18.13;54.10;101109.66;4978326;28;45717;-93
2021/08/02 02:50:44;;;;;;;;;3.00;3.00;;;;;18.09;54.14;101116.03;4977009;28;45398;-91
2021/08/02 02:53:12;;;;;;;;;3.25;2.00;;;;;18.05;54.20;101111.03;4993382;28;45316;-91
2021/08/02 02:55:40;;;;;;;;;2.00;2.00;;;;;18.03;54.62;101119.88;4964827;28;45481;-91
2021/08/02 02:58:06;;;;;;;;;3.00;3.00;;;;;17.99;54.25;101121.00;4941335;28;47076;-91
2021/08/02 03:00:33;;;;;;;;;3.50;3.50;;;;;17.96;54.31;101115.91;4945893;28;45884;-91
2021/08/02 03:02:59;;;;;;;;;5.75;3.00;;;;;17.97;54.51;101114.97;4992283;28;45300;-91
2021/08/02 03:05:26;;;;;;;;;3.00;2.00;;;;;17.91;54.53;101117.97;4960176;28;45456;-89
2021/08/02 03:07:59;;;;;;;;;2.00;2.00;;;;;17.90;54.76;101114.50;4960231;28;46950;-91
2021/08/02 03:10:30;;;;;;;;;4.25;3.00;;;;;17.93;54.85;101121.38;4960260;28;45351;-91
2021/08/02 03:12:56;;;;;;;;;4.75;3.25;;;;;17.84;55.67;101109.63;4960720;28;45382;-90
2021/08/02 03:15:21;;;;;;;;;2.00;2.00;;;;;17.88;55.41;101118.19;4990777;28;45469;-91
2021/08/02 03:17:47;;;;;;;;;3.00;3.00;;;;;17.85;55.28;101116.59;4957119;28;46741;-90
2021/08/02 03:20:17;;;;;;;;;2.00;2.00;;;;;17.82;55.28;101114.13;4956987;28;45236;-90
2021/08/02 03:22:53;;;;;;;;;2.25;2.25;;;;;17.76;54.92;101118.00;4957230;28;45483;-91
2021/08/02 03:25:44;;;;;;;;;2.00;2.00;;;;;17.80;55.18;101130.94;4941209;28;45482;-91
2021/08/02 03:28:20;;;;;;;;;3.25;2.75;;;;;17.72;55.71;101119.09;4958038;28;45552;-91
2021/08/02 03:30:48;;;;;;;;;2.25;2.25;;;;;17.72;55.62;101132.25;4990748;28;45511;-90
2021/08/02 03:33:20;;;;;;;;;2.00;2.00;;;;;17.71;55.63;101133.22;4992953;28;45419;-91
2021/08/02 03:35:48;;;;;;;;;3.50;3.50;;;;;17.69;55.75;101135.06;4976480;28;45325;-90
2021/08/02 03:38:15;;;;;;;;;3.00;3.00;;;;;17.66;55.81;101134.41;4963159;28;46976;-91
2021/08/02 03:40:47;;;;;;;;;3.50;3.00;;;;;17.63;55.95;101138.94;4959924;28;45458;-91
2021/08/02 03:43:15;;;;;;;;;2.75;2.00;;;;;17.57;56.22;101139.28;4992720;28;45713;-91
2021/08/02 03:45:42;;;;;;;;;4.00;3.00;;;;;17.54;55.81;101134.19;4976737;28;45479;-91
2021/08/02 03:48:09;;;;;;;;;2.00;2.00;;;;;17.54;55.87;101147.34;4951450;28;48712;-91
2021/08/02 03:50:37;;;;;;;;;4.75;3.00;;;;;17.49;56.26;101144.16;4940427;28;45283;-91
2021/08/02 03:53:03;;;;;;;;;4.00;2.00;;;;;17.44;56.33;101131.28;4956748;28;45317;-91
2021/08/02 03:55:31;;;;;;;;;5.75;3.00;;;;;17.45;56.40;101147.91;4940601;28;45544;-91
2021/08/02 03:57:57;;;;;;;;;3.00;3.00;;;;;17.44;56.40;101146.19;4940963;28;47028;-90
2021/08/02 04:00:24;;;;;;;;;4.25;3.25;;;;;17.40;56.41;101144.72;4974523;28;45738;-90
2021/08/02 04:02:50;;;;;;;;;3.50;3.00;;;;;17.36;56.34;101144.03;4976001;28;45343;-90
2021/08/02 04:05:18;;;;;;;;;4.00;3.50;;;;;17.37;56.47;101148.38;4976500;28;45499;-91
2021/08/02 04:07:45;;;;;;;;;4.00;4.00;;;;;17.36;56.48;101149.31;4975773;28;48016;-90
2021/08/02 04:10:11;;;;;;;;;3.00;3.00;;;;;17.31;56.71;101149.56;4954139;28;45388;-91
2021/08/02 04:12:37;;;;;;;;;3.50;3.00;;;;;17.32;56.83;101150.41;4961395;28;45249;-90
2021/08/02 04:15:07;;;;;;;;;3.75;3.75;;;;;17.30;57.04;101161.00;4960002;28;45241;-91
2021/08/02 04:17:33;;;;;;;;;3.50;3.50;;;;;17.27;56.51;101162.97;4992110;28;47159;-90
2021/08/02 04:19:58;;;;;;;;;5.50;3.00;;;;;17.25;56.98;101159.59;4982549;28;45504;-90
2021/08/02 04:22:24;;;;;;;;;2.75;2.50;;;;;17.26;57.06;101169.19;4980432;28;45367;-91
2021/08/02 04:24:49;;;;;;;;;3.00;3.00;;;;;17.22;56.89;101171.97;4962835;28;45449;-91
2021/08/02 04:27:15;;;;;;;;;5.00;3.00;;;;;17.19;56.89;101168.69;4962668;28;47641;-91
2021/08/02 04:29:40;;;;;;;;;3.25;3.00;;;;;17.19;57.25;101176.56;4962339;28;45399;-91
2021/08/02 04:32:06;;;;;;;;;4.25;4.25;;;;;17.16;56.84;101184.63;4978129;28;45526;-91
2021/08/02 04:34:31;;;;;;;;;2.75;2.25;;;;;17.14;57.10;101178.59;4982897;28;45387;-91
2021/08/02 04:36:57;;;;;;;;;5.50;3.75;;;;;17.12;57.41;101185.75;4979124;28;47984;-91
2021/08/02 04:39:22;;;;;;;;;3.00;3.00;;;;;17.08;57.16;101182.44;4979015;28;45469;-90
2021/08/02 04:41:48;;;;;;;;;3.00;3.00;;;;;17.09;57.09;101186.78;4968875;28;45258;-91
2021/08/02 04:44:13;;;;;;;;;3.75;3.50;;;;;17.09;57.48;101187.59;4982601;28;44794;-91
2021/08/02 04:46:43;;;;;;;;;3.50;3.50;;;;;17.09;57.51;101181.50;4981984;28;47190;-91
2021/08/02 04:49:09;;;;;;;;;4.75;3.00;;;;;17.06;57.58;101185.16;4981275;28;45392;-90
2021/08/02 04:51:35;;;;;;;;;1.00;1.00;;;;;17.06;57.55;101184.31;4977337;28;45432;-90
2021/08/02 04:54:00;;;;;;;;;3.00;3.00;;;;;17.06;57.78;101179.03;4979316;28;45376;-91
2021/08/02 04:56:25;;;;;;;;;3.50;2.50;;;;;17.06;57.95;101181.66;4978769;28;46780;-89
2021/08/02 04:58:53;;;;;;;;;6.25;3.75;;;;;17.05;57.69;101177.34;4980044;28;45517;-90
2021/08/02 05:01:19;;;;;;;;;5.00;4.75;;;;;17.06;58.13;101186.94;4978525;28;44798;-90
2021/08/02 05:03:45;;;;;;;;;3.00;3.00;;;;;17.06;57.72;101174.66;4978004;28;45266;-90
2021/08/02 05:06:11;;;;;;;;;5.00;3.00;;;;;17.08;58.33;101187.72;4994357;28;47205;-90
2021/08/02 05:08:37;;;;;;;;;3.75;3.75;;;;;17.06;58.27;101176.41;4961240;28;45765;-91
2021/08/02 05:11:03;;;;;;;;;6.75;3.25;;;;;17.09;58.28;101182.34;4962261;28;45313;-90
2021/08/02 05:13:29;;;;;;;;;5.00;4.50;;;;;17.08;58.25;101178.03;4979628;28;45435;-90
2021/08/02 05:15:55;;;;;;;;;3.75;3.00;;;;;17.08;58.37;101183.28;4968065;28;47796;-90
2021/08/02 05:18:20;;;;;;;;;6.50;5.00;;;;;17.14;58.56;101197.00;4962470;28;45353;-90
2021/08/02 05:20:46;;;;;;;;;4.00;4.00;;;;;17.14;58.35;101200.50;4961832;28;45313;-91
2021/08/02 05:23:14;;;;;;;;;4.00;4.00;;;;;17.15;58.33;101198.72;4962216;28;45535;-90
2021/08/02 05:25:39;;;;;;;;;6.00;4.00;;;;;17.14;58.55;101195.25;4961358;28;47254;-89
2021/08/02 05:28:05;;;;;;;;;3.00;3.00;;;;;17.14;59.02;101192.63;4994077;28;45375;-91
2021/08/02 05:30:30;;;;;;;;;4.50;4.50;;;;;17.16;59.03;101192.50;4978169;28;45498;-91
2021/08/02 05:32:56;;;;;;;;;5.00;5.00;;;;;17.20;58.75;101196.66;4961992;28;45403;-91
2021/08/02 05:35:21;;;;;;;;;3.75;2.75;;;;;17.23;58.66;101192.06;4960064;28;47828;-90
2021/08/02 05:37:47;;;;;;;;;4.00;4.00;;;;;17.28;58.93;101193.59;4977153;28;45462;-90
2021/08/02 05:40:13;;;;;;;;;5.00;5.00;;;;;17.33;59.23;101197.69;4958225;28;45451;-90
2021/08/02 05:42:41;;;;;;;;;4.00;4.00;;;;;17.39;59.33;101200.91;4958522;28;45012;-91
2021/08/02 05:45:13;;;;;;;;;7.00;6.00;;;;;17.43;59.52;101199.75;4966267;28;47447;-90
2021/08/02 05:47:40;;;;;;;;;4.00;4.00;;;;;17.55;59.14;101200.84;4993488;28;45504;-90
2021/08/02 05:50:06;;;;;;;;;6.50;6.00;;;;;17.61;59.19;101203.13;4961141;28;45266;-91
2021/08/02 05:52:31;;;;;;;;;5.75;5.00;;;;;17.70;59.42;101199.94;4994275;28;44818;-91
2021/08/02 05:54:57;;;;;;;;;6.00;5.00;;;;;17.81;58.98;101206.38;4961291;28;46978;-91
2021/08/02 05:57:23;;;;;;;;;5.00;3.67;;;;;17.84;59.06;101207.03;4958461;28;45471;-90
2021/08/02 05:59:48;;;;;;;;;3.00;3.00;;;;;17.95;59.12;101211.66;4977696;28;45455;-90
2021/08/02 06:02:14;;;;;;;;;4.00;3.00;;;;;17.99;59.22;101205.25;4976858;28;45663;-90
2021/08/02 06:04:40;;;;;;;;;3.67;3.00;;;;;18.07;59.07;101211.88;4960046;28;46688;-90
2021/08/02 06:07:06;;;;;;;;;4.00;4.00;;;;;18.14;58.57;101219.31;4960951;28;44927;-90
2021/08/02 06:09:31;;;;;;;;;3.25;3.25;;;;;18.19;59.04;101215.56;4961464;28;45532;-90
2021/08/02 06:12:01;;;;;;;;;3.75;3.75;;;;;18.25;58.64;101218.69;4974260;28;45309;-90
2021/08/02 06:14:27;;;;;;;;;2.75;2.75;;;;;18.29;59.11;101217.53;4976510;28;47273;-90
2021/08/02 06:16:52;;;;;;;;;3.33;3.00;;;;;18.34;58.58;101211.13;4977098;28;45350;-91
2021/08/02 06:20:33;;;;;;;;;;;;;;;;;;;;;
2021/08/02 06:23:09;;;;;;;;;;;;;;;;;;;;;
2021/08/02 06:26:39;;;;;;;;;;;;;;;;;;;;;
2021/08/02 07:03:27;;;;;;;;;;;;;;;;;;;;;
2021/08/02 07:05:53;;;;;;;;;2.00;2.00;;;;;19.36;56.70;101240.81;4814447;29;75123;-91
2021/08/02 07:08:19;;;;;;;;;5.00;4.67;;;;;19.43;56.45;101236.81;4852358;28;45451;-91
2021/08/02 07:10:53;;;;;;;;;3.33;3.00;;;;;19.50;56.34;101237.28;4904121;28;45593;-90
2021/08/02 07:13:20;;;;;;;;;6.00;5.00;;;;;19.57;56.34;101235.91;4918183;28;45634;-91
2021/08/02 07:15:46;;;;;;;;;4.33;3.67;;;;;19.68;56.56;101239.63;4917127;28;46616;-91
2021/08/02 07:18:11;;;;;;;;;5.00;4.00;;;;;19.71;56.07;101234.13;4916986;28;45306;-90
2021/08/02 07:20:37;;;;;;;;;4.00;4.00;;;;;19.75;56.34;101236.50;4898483;28;45867;-90
2021/08/02 07:23:02;;;;;;;;;5.00;4.25;;;;;19.81;55.82;101237.03;4916452;28;45474;-91
2021/08/02 07:25:28;;;;;;;;;3.00;2.67;;;;;19.82;55.74;101234.28;4917732;28;47357;-91
2021/08/02 07:27:53;;;;;;;;;6.00;4.75;;;;;19.84;55.78;101237.66;4959906;28;45485;-91
2021/08/02 07:30:19;;;;;;;;;5.33;4.00;;;;;19.88;56.16;101243.56;4976415;28;45292;-90
2021/08/02 07:32:44;;;;;;;;;6.33;4.33;;;;;19.90;55.96;101236.38;4962475;28;45373;-91
2021/08/02 07:35:12;;;;;;;;;5.67;5.67;;;;;19.92;55.40;101231.00;4958255;28;47904;-91
2021/08/02 07:37:44;;;;;;;;;4.67;4.33;;;;;19.94;55.54;101231.75;4968132;28;45498;-90
2021/08/02 07:40:11;;;;;;;;;3.67;3.67;;;;;19.96;55.25;101229.84;4976327;28;45408;-90
2021/08/02 07:42:36;;;;;;;;;6.00;5.67;;;;;20.02;55.75;101232.97;4982757;28;46709;-91
2021/08/02 07:45:03;;;;;;;;;4.33;4.33;;;;;20.08;55.58;101236.13;4979563;28;45438;-91
2021/08/02 07:47:28;;;;;;;;;6.00;5.00;;;;;20.14;55.39;101238.34;4961868;28;45507;-90
2021/08/02 07:49:54;;;;;;;;;4.67;4.67;;;;;20.13;55.02;101237.50;4979219;28;45270;-91
2021/08/02 07:52:20;;;;;;;;;7.00;4.00;;;;;20.10;55.16;101236.88;4995439;28;45431;-90
2021/08/02 07:54:45;;;;;;;;;4.00;4.00;;;;;20.14;55.25;101238.34;4978326;28;46867;-90
2021/08/02 07:57:15;;;;;;;;;6.00;5.33;;;;;20.15;55.01;101237.41;4952511;28;45284;-90
2021/08/02 07:59:46;;;;;;;;;4.67;4.67;;;;;20.15;54.72;101246.16;4968393;28;45699;-91
2021/08/02 08:02:11;;;;;;;;;5.00;5.00;;;;;20.21;55.00;101244.03;4958564;28;45614;-91
2021/08/02 08:04:46;;;;;;;;;5.00;4.00;;;;;20.23;55.09;101235.06;4958060;28;47051;-90
2021/08/02 08:07:21;;;;;;;;;4.00;4.00;;;;;20.32;54.71;101232.75;4942854;28;45404;-91
2021/08/02 08:09:50;;;;;;;;;5.00;5.00;;;;;20.36;54.68;101235.06;4958677;28;45295;-91
2021/08/02 08:12:21;;;;;;;;;4.67;4.67;;;;;20.38;54.33;101238.44;4967698;28;45671;-92
2021/08/02 08:15:01;;;;;;;;;;;;;;;;;;;;;
2021/08/02 08:17:32;;;;;;;;;5.67;4.33;;;;;20.43;54.71;101233.66;4979034;28;72978;-94
2021/08/02 08:20:00;;;;;;;;;4.00;4.00;;;;;20.53;54.58;101236.53;4975525;28;45514;-92
2021/08/02 08:22:31;;;;;;;;;4.00;4.00;;;;;20.63;54.60;101231.41;4962381;28;45534;-92
2021/08/02 08:25:04;;;;;;;;;5.33;4.00;;;;;20.67;53.86;101235.53;4961638;28;46745;-91
2021/08/02 08:27:50;;;;;;;;;5.33;4.33;;;;;20.71;53.42;101236.16;4973443;28;45560;-92
2021/08/02 08:30:25;;;;;;;;;3.33;3.00;;;;;20.74;53.52;101233.28;4986634;28;45372;-91
2021/08/02 08:32:55;;;;;;;;;4.67;4.00;;;;;20.79;53.47;101235.63;4962902;28;45400;-92
2021/08/02 08:35:39;;;;;;;;;;;;;;;;;;;;;
2021/08/02 08:38:38;;;;;;;;;2.00;2.00;;;;;20.92;53.43;101232.97;4978496;28;72595;-91
2021/08/02 08:41:06;;;;;;;;;6.67;4.00;;;;;21.01;53.68;101234.09;4957010;28;45543;-92
2021/08/02 08:43:32;;;;;;;;;3.67;3.00;;;;;21.09;53.66;101234.38;4962589;28;45531;-91
2021/08/02 08:46:00;;;;;;;;;3.00;3.00;;;;;21.12;53.52;101220.94;4961758;28;46893;-93
2021/08/02 08:48:27;;;;;;;;;5.00;5.00;;;;;21.18;52.83;101235.50;4992978;28;45613;-92
2021/08/02 08:50:58;;;;;;;;;4.00;4.00;;;;;21.20;52.63;101233.59;4978995;28;45372;-92
2021/08/02 08:53:32;;;;;;;;;1.00;1.00;;;;;21.26;52.96;101238.44;4958724;28;45249;-92
2021/08/02 08:55:58;;;;;;;;;3.00;3.00;;;;;21.24;52.83;101235.06;4960507;28;47903;-92
2021/08/02 08:58:34;;;;;;;;;4.33;4.00;;;;;21.26;52.47;101237.59;4973532;28;45691;-92
2021/08/02 09:01:15;;;;;;;;;3.00;3.00;;;;;21.28;52.79;101243.63;4963589;28;45454;-92
2021/08/02 09:04:07;;;;;;;;;4.00;4.00;;;;;21.33;52.63;101236.16;4961975;28;45548;-92
2021/08/02 09:06:47;;;;;;;;;5.67;3.00;;;;;21.42;52.25;101237.31;4971360;28;48330;-92
2021/08/02 09:09:34;;;;;;;;;4.33;4.00;;;;;21.43;52.53;101233.72;4992387;28;45503;-92
2021/08/02 09:12:14;;;;;;;;;5.67;5.67;;;;;21.53;52.12;101237.38;4963892;28;45380;-92
2021/08/02 09:15:08;;;;;;;;;4.33;4.00;;;;;21.65;52.21;101243.53;4978384;28;45311;-92
2021/08/02 09:17:51;;;;;;;;;4.33;4.00;;;;;21.65;51.52;101238.22;4977947;28;47357;-92
2021/08/02 09:20:23;;;;;;;;;4.67;3.33;;;;;21.69;51.39;101239.69;4979571;28;45467;-92
2021/08/02 09:22:54;;;;;;;;;3.00;3.00;;;;;21.76;52.24;101250.69;4967661;28;45464;-90
2021/08/02 09:25:28;;;;;;;;;2.33;2.33;;;;;21.79;51.55;101239.84;4961886;28;45452;-92
2021/08/02 09:27:58;;;;;;;;;4.67;2.67;;;;;21.82;51.14;101237.00;4978608;28;46514;-92
2021/08/02 09:30:31;;;;;;;;;3.67;3.67;;;;;21.90;51.24;101239.06;4961610;28;45408;-92
2021/08/02 09:33:07;;;;;;;;;4.00;2.67;;;;;21.90;50.86;101236.41;4966186;28;45516;-92
2021/08/02 09:36:05;;;;;;;;;;;;;;;;;;;;;
2021/08/02 09:38:36;;;;;;;;;3.33;3.33;;;;;21.96;50.40;101246.53;4977945;28;73578;-92
2021/08/02 09:41:12;;;;;;;;;;;;;;;;;;;;;
2021/08/02 09:43:54;;;;;;;;;3.00;3.00;;;;;22.08;50.14;101238.59;4977286;28;67942;-92
2021/08/02 09:47:06;;;;;;;;;3.00;3.00;;;;;22.06;50.23;101236.06;4992890;28;45655;-91
2021/08/02 09:50:07;;;;;;;;;3.00;3.00;;;;;22.14;50.34;101238.94;4940792;28;47035;-92
2021/08/02 09:52:40;;;;;;;;;2.00;2.00;;;;;22.26;49.87;101239.81;4921706;28;45401;-91
2021/08/02 09:55:25;;;;;;;;;4.00;2.00;;;;;22.31;49.62;101243.91;4932915;28;45434;-92
2021/08/02 09:57:55;;;;;;;;;3.00;2.67;;;;;22.38;50.14;101248.63;4937383;28;45284;-91
2021/08/02 10:00:34;;;;;;;;;;;;;;;;;;;;;
2021/08/02 10:03:04;;;;;;;;;2.67;2.67;;;;;22.46;49.05;101232.13;4936400;28;71887;-92
2021/08/02 10:05:35;;;;;;;;;4.67;3.33;;;;;22.54;49.83;101232.38;4947821;28;45706;-92
2021/08/02 10:08:06;;;;;;;;;3.00;3.00;;;;;22.64;49.69;101226.34;4956384;28;45586;-92
2021/08/02 10:10:43;;;;;;;;;2.67;2.67;;;;;22.78;49.42;101228.72;4956890;28;45416;-92
2021/08/02 10:13:24;;;;;;;;;4.00;2.67;;;;;22.83;48.73;101217.75;4956431;28;45549;-92
2021/08/02 10:16:04;;;;;;;;;3.00;3.00;;;;;22.96;48.53;101233.53;4930285;28;45672;-93
2021/08/02 10:18:36;;;;;;;;;1.67;1.67;;;;;23.00;47.65;101237.59;4924978;28;45728;-92
2021/08/02 10:21:09;;;;;;;;;1.00;0.33;;;;;23.02;47.97;101229.50;4940340;28;45309;-92
2021/08/02 10:23:38;;;;;;;;;2.33;2.33;;;;;23.06;47.48;101225.63;4940447;28;44876;-92
2021/08/02 10:26:20;;;;;;;;;3.00;2.00;;;;;23.03;47.48;101223.22;4946340;28;45551;-92
2021/08/02 10:28:57;;;;;;;;;1.33;1.33;;;;;23.02;47.65;101218.88;4995525;28;45470;-92
2021/08/02 10:31:25;;;;;;;;;3.33;1.67;;;;;23.06;47.52;101229.13;4995363;28;45724;-91
2021/08/02 10:33:58;;;;;;;;;2.00;2.00;;;;;23.11;47.54;101226.09;4978760;28;45399;-91
2021/08/02 10:36:36;;;;;;;;;;;;;;;;;;;;;
2021/08/02 10:39:07;;;;;;;;;1.00;1.00;;;;;23.09;46.38;101228.03;4974361;28;63536;-91
2021/08/02 10:41:42;;;;;;;;;1.00;0.67;;;;;23.02;46.32;101224.19;4959527;28;47046;-92
2021/08/02 10:44:23;;;;;;;;;3.67;2.67;;;;;23.04;46.29;101223.09;4959055;28;45812;-91
2021/08/02 10:47:15;;;;;;;;;;;;;;;;;;;;;
2021/08/02 10:50:13;;;;;;;;;1.33;1.33;;;;;23.06;46.51;101215.84;4976590;28;64574;-90
2021/08/02 10:52:43;;;;;;;;;1.00;1.00;;;;;23.12;45.80;101225.13;4975153;28;47358;-91
2021/08/02 10:55:29;;;;;;;;;1.00;1.00;;;;;23.19;46.18;101223.66;4976442;28;45412;-92
2021/08/02 10:58:01;;;;;;;;;0.33;0.33;;;;;23.33;46.23;101229.69;4976317;28;45371;-91
2021/08/02 11:00:55;;;;;;;;;1.00;1.00;;;;;23.49;45.93;101221.28;4993342;28;45629;-92
2021/08/02 11:06:18;;;;;;;;;1.00;1.00;;;;;23.93;44.95;101223.78;4917263;28;45416;-92
2021/08/02 11:09:05;;;;;;;;;2.00;2.00;;;;;24.17;44.89;101228.00;4917476;28;45481;-92
2021/08/02 11:11:38;;;;;;;;;1.00;1.00;;;;;24.35;44.75;101222.88;4917867;28;45640;-90
2021/08/02 11:14:29;;;;;;;;;1.00;1.00;;;;;24.51;44.22;101214.41;4917042;28;47344;-93
2021/08/02 11:16:56;;;;;;;;;1.00;1.00;;;;;24.69;44.71;101225.25;4917172;28;45586;-92
2021/08/02 11:19:59;;;;;;;;;1.33;1.00;;;;;24.91;44.27;101223.34;4904497;28;45536;-92
2021/08/02 11:22:28;;;;;;;;;1.00;1.00;;;;;25.07;43.84;101211.31;4886047;29;45306;-92
2021/08/02 11:25:00;;;;;;;;;2.00;1.00;;;;;25.18;43.68;101213.84;4917414;28;47970;-92
2021/08/02 11:27:41;;;;;;;;;1.00;1.00;;;;;25.41;42.55;101213.53;4917787;28;45790;-92
2021/08/02 11:30:19;;;;;;;;;2.00;1.33;;;;;25.57;43.08;101209.50;4920280;28;45343;-91
2021/08/02 11:32:56;;;;;;;;;1.00;1.00;;;;;25.64;42.56;101212.44;4904866;28;45544;-92
2021/08/02 11:35:55;;;;;;;;;;;;;;;;;;;;;
2021/08/02 11:38:30;;;;;;;;;;;;;;;;;;;;;
2021/08/02 11:41:01;;;;;;;;;4.33;1.33;;;;;25.66;42.65;101205.97;4918701;28;70058;-92
2021/08/02 11:43:29;;;;;;;;;1.33;1.33;;;;;25.73;41.96;101193.75;4966822;28;45414;-92
2021/08/02 11:45:55;;;;;;;;;1.33;1.33;;;;;25.86;41.90;101204.09;4962503;28;46977;-92
2021/08/02 11:48:26;;;;;;;;;1.67;1.67;;;;;25.96;42.37;101196.06;4962959;28;45859;-92
2021/08/02 11:50:52;;;;;;;;;1.00;1.00;;;;;26.08;41.83;101199.41;4981046;28;45276;-92
2021/08/02 11:53:20;;;;;;;;;1.33;1.00;;;;;26.17;41.48;101195.00;4973580;28;45439;-91
2021/08/02 11:55:56;;;;;;;;;2.67;2.00;;;;;26.24;40.58;101195.31;4978197;28;48562;-92
2021/08/02 11:58:36;;;;;;;;;1.00;1.00;;;;;26.26;40.86;101201.31;4979140;28;46052;-93
2021/08/02 12:01:04;;;;;;;;;0.00;0.00;;;;;26.35;40.72;101210.25;4979856;28;45596;-92
2021/08/02 12:03:35;;;;;;;;;2.00;2.00;;;;;26.51;41.52;101201.59;4975175;28;45694;-93
2021/08/02 12:06:28;;;;;;;;;2.00;2.00;;;;;26.80;41.51;101180.06;4978492;28;46831;-91
2021/08/02 12:09:01;;;;;;;;;1.67;1.67;;;;;27.15;40.95;101190.94;4980221;28;45327;-92
2021/08/02 12:11:29;;;;;;;;;1.00;1.00;;;;;27.38;40.53;101192.25;4980653;28;45406;-92
2021/08/02 12:14:17;;;;;;;;;;;;;;;;;;;;;
2021/08/02 12:16:46;;;;;;;;;1.33;1.33;;;;;27.56;38.52;101179.72;4978751;28;74167;-92
2021/08/02 12:19:17;;;;;;;;;3.00;2.00;;;;;27.53;39.43;101193.38;4995310;28;45232;-92
2021/08/02 12:21:55;;;;;;;;;3.00;1.33;;;;;27.45;38.39;101172.78;4975692;28;45344;-91
2021/08/02 12:24:21;;;;;;;;;2.00;2.00;;;;;27.48;38.53;101182.31;4994945;28;45414;-92
2021/08/02 12:27:13;;;;;;;;;1.00;1.00;;;;;27.54;38.70;101173.66;4962268;28;46745;-91
2021/08/02 12:30:11;;;;;;;;;1.00;1.00;;;;;27.61;37.95;101177.44;4993728;28;45322;-93
2021/08/02 12:32:51;;;;;;;;;2.00;0.67;;;;;27.53;36.91;101184.53;4922760;28;45915;-92
2021/08/02 12:35:30;;;;;;;;;0.67;0.67;;;;;27.34;37.41;101189.06;4955948;28;46016;-92
2021/08/02 12:38:26;;;;;;;;;;;;;;;;;;;;;
2021/08/02 12:41:07;;;;;;;;;3.33;2.00;;;;;26.75;37.48;101173.53;4938086;28;71910;-92
2021/08/02 12:43:37;;;;;;;;;1.00;1.00;;;;;26.50;37.77;101179.44;4922920;28;45533;-92